createdAt,value
2022-07-26T00:01:21.813Z,20.37
2022-07-26T00:03:50.996Z,20.33
2022-07-26T00:06:18.124Z,20.28
2022-07-26T00:08:47.282Z,20.23
2022-07-26T00:11:14.298Z,20.17
2022-07-26T00:13:41.103Z,20.12
2022-07-26T00:16:07.805Z,20.09
2022-07-26T00:18:34.498Z,20.03
2022-07-26T00:21:01.036Z,19.98
2022-07-26T00:23:27.839Z,19.91
2022-07-26T00:25:54.399Z,19.84
2022-07-26T00:28:21.050Z,19.79
2022-07-26T00:30:47.871Z,19.75
2022-07-26T00:33:14.513Z,19.70
2022-07-26T00:35:41.142Z,19.64
2022-07-26T00:38:07.919Z,19.62
2022-07-26T00:40:35.565Z,19.60
2022-07-26T00:43:02.294Z,19.57
2022-07-26T00:45:28.823Z,19.53
2022-07-26T00:47:55.496Z,19.49
2022-07-26T00:50:22.112Z,19.44
2022-07-26T00:52:50.403Z,19.40
2022-07-26T00:55:18.017Z,19.38
2022-07-26T00:57:45.636Z,19.38
2022-07-26T01:00:18.376Z,19.36
2022-07-26T01:02:45.724Z,19.34
2022-07-26T01:05:12.442Z,19.31
2022-07-26T01:07:39.554Z,19.26
2022-07-26T01:10:10.666Z,19.21
2022-07-26T01:12:37.176Z,19.17
2022-07-26T01:15:04.081Z,19.14
2022-07-26T01:17:30.601Z,19.13
2022-07-26T01:19:57.140Z,19.15
2022-07-26T01:22:24.124Z,19.16
2022-07-26T01:24:50.709Z,19.19
2022-07-26T01:27:17.529Z,19.22
2022-07-26T01:29:44.090Z,19.26
2022-07-26T01:32:10.613Z,19.29
2022-07-26T01:34:37.130Z,19.32
2022-07-26T01:37:04.080Z,19.34
2022-07-26T01:39:30.609Z,19.37
2022-07-26T01:41:57.346Z,19.41
2022-07-26T01:44:24.179Z,19.44
2022-07-26T01:46:50.694Z,19.47
2022-07-26T01:49:17.442Z,19.48
2022-07-26T01:51:44.316Z,19.49
2022-07-26T01:54:11.550Z,19.50
2022-07-26T01:56:38.458Z,19.51
2022-07-26T01:59:05.146Z,19.53
2022-07-26T02:01:39.209Z,19.53
2022-07-26T02:04:08.603Z,19.56
2022-07-26T02:06:35.544Z,19.56
2022-07-26T02:09:04.095Z,19.60
2022-07-26T02:11:33.023Z,19.61
2022-07-26T02:13:59.640Z,19.62
2022-07-26T02:16:26.844Z,19.62
2022-07-26T02:18:53.656Z,19.62
2022-07-26T02:21:20.135Z,19.62
2022-07-26T02:23:46.685Z,19.61
2022-07-26T02:26:13.237Z,19.59
2022-07-26T02:28:39.847Z,19.59
2022-07-26T02:31:06.440Z,19.57
2022-07-26T02:33:33.109Z,19.56
2022-07-26T02:35:59.641Z,19.54
2022-07-26T02:38:26.181Z,19.52
2022-07-26T02:40:52.941Z,19.52
2022-07-26T02:43:19.868Z,19.51
2022-07-26T02:46:01.511Z,19.51
2022-07-26T02:48:30.308Z,19.52
2022-07-26T02:50:56.935Z,19.52
2022-07-26T02:53:23.497Z,19.53
2022-07-26T02:55:50.010Z,19.54
2022-07-26T02:58:16.719Z,19.54
2022-07-26T03:00:43.302Z,19.55
2022-07-26T03:03:13.929Z,19.56
2022-07-26T03:05:40.814Z,19.59
2022-07-26T03:08:07.666Z,19.59
2022-07-26T03:10:34.165Z,19.58
2022-07-26T03:13:00.781Z,19.59
2022-07-26T03:15:27.505Z,19.58
2022-07-26T03:17:55.223Z,19.57
2022-07-26T03:20:21.773Z,19.56
2022-07-26T03:22:48.536Z,19.55
2022-07-26T03:25:15.076Z,19.54
2022-07-26T03:27:41.706Z,19.53
2022-07-26T03:30:08.972Z,19.52
2022-07-26T03:32:35.665Z,19.52
2022-07-26T03:35:02.145Z,19.51
2022-07-26T03:37:44.735Z,19.51
2022-07-26T03:40:14.618Z,19.50
2022-07-26T03:42:41.194Z,19.50
2022-07-26T03:45:09.342Z,19.50
2022-07-26T03:47:37.188Z,19.51
2022-07-26T03:50:05.260Z,19.51
2022-07-26T03:52:31.953Z,19.51
2022-07-26T03:54:58.836Z,19.51
2022-07-26T03:57:28.407Z,19.52
2022-07-26T03:59:55.109Z,19.51
2022-07-26T04:02:21.821Z,19.52
2022-07-26T04:04:48.441Z,19.47
2022-07-26T04:07:16.001Z,19.43
2022-07-26T04:09:42.959Z,19.38
2022-07-26T04:12:09.683Z,19.33
2022-07-26T04:14:36.242Z,19.31
2022-07-26T04:17:02.797Z,19.28
2022-07-26T04:19:29.613Z,19.26
2022-07-26T04:21:56.182Z,19.25
2022-07-26T04:24:25.299Z,19.26
2022-07-26T04:26:52.457Z,19.25
2022-07-26T04:29:18.961Z,19.25
2022-07-26T04:31:45.584Z,19.26
2022-07-26T04:34:12.157Z,19.27
2022-07-26T04:36:39.140Z,19.29
2022-07-26T04:39:05.711Z,19.32
2022-07-26T04:41:32.269Z,19.35
2022-07-26T04:43:58.882Z,19.38
2022-07-26T04:46:25.679Z,19.40
2022-07-26T04:48:52.357Z,19.43
2022-07-26T04:51:18.923Z,19.44
2022-07-26T04:53:45.428Z,19.47
2022-07-26T04:56:12.166Z,19.50
2022-07-26T04:58:38.667Z,19.50
2022-07-26T05:01:12.433Z,19.52
2022-07-26T05:03:39.840Z,19.56
2022-07-26T05:06:06.894Z,19.58
2022-07-26T05:08:33.445Z,19.63
2022-07-26T05:11:00.012Z,19.70
2022-07-26T05:13:30.216Z,19.79
2022-07-26T05:15:58.366Z,19.86
2022-07-26T05:18:25.341Z,19.94
2022-07-26T05:20:52.341Z,20.03
2022-07-26T05:23:20.459Z,20.10
2022-07-26T05:25:47.382Z,20.17
2022-07-26T05:28:13.906Z,20.25
2022-07-26T05:30:40.450Z,20.31
2022-07-26T05:33:07.003Z,20.33
2022-07-26T05:35:33.520Z,20.35
2022-07-26T05:38:00.095Z,20.39
2022-07-26T05:40:26.606Z,20.42
2022-07-26T05:42:53.168Z,20.40
2022-07-26T05:45:19.969Z,20.39
2022-07-26T05:47:49.975Z,20.39
2022-07-26T05:50:16.779Z,20.36
2022-07-26T05:52:43.492Z,20.42
2022-07-26T05:55:10.165Z,20.48
2022-07-26T05:57:36.767Z,20.60
2022-07-26T06:00:04.689Z,20.70
2022-07-26T06:02:38.569Z,20.79
2022-07-26T06:05:05.820Z,20.87
2022-07-26T06:07:32.525Z,20.97
2022-07-26T06:09:59.970Z,21.07
2022-07-26T06:12:26.689Z,21.10
2022-07-26T06:14:53.154Z,21.14
2022-07-26T06:17:19.735Z,21.15
2022-07-26T06:19:47.872Z,21.19
2022-07-26T06:22:15.115Z,21.10
2022-07-26T06:24:41.637Z,21.08
2022-07-26T06:27:08.411Z,21.02
2022-07-26T06:29:34.929Z,21.03
2022-07-26T06:32:01.639Z,21.06
2022-07-26T06:34:28.714Z,21.11
2022-07-26T06:36:55.349Z,21.13
2022-07-26T06:39:21.854Z,21.24
2022-07-26T06:41:48.503Z,21.32
2022-07-26T06:44:22.621Z,21.39
2022-07-26T06:46:49.773Z,21.43
2022-07-26T06:49:20.549Z,21.40
2022-07-26T06:51:48.881Z,21.41
2022-07-26T06:54:15.723Z,21.37
2022-07-26T06:56:42.326Z,21.26
2022-07-26T06:59:09.565Z,21.17
2022-07-26T07:01:57.746Z,21.08
2022-07-26T07:04:22.897Z,21.03
2022-07-26T07:06:49.593Z,21.06
2022-07-26T07:09:16.188Z,21.08
2022-07-26T07:11:44.378Z,21.10
2022-07-26T07:14:11.956Z,21.22
2022-07-26T07:16:38.826Z,21.28
2022-07-26T07:19:05.484Z,21.24
2022-07-26T07:21:33.746Z,21.32
2022-07-26T07:24:00.785Z,21.49
2022-07-26T07:26:29.313Z,21.59
2022-07-26T07:28:55.958Z,21.66
2022-07-26T07:31:28.732Z,21.74
2022-07-26T07:33:57.459Z,21.72
2022-07-26T07:36:24.699Z,21.67
2022-07-26T07:38:51.381Z,21.58
2022-07-26T07:41:18.945Z,21.44
2022-07-26T07:43:45.563Z,21.42
2022-07-26T07:46:12.839Z,21.49
2022-07-26T07:48:47.417Z,21.59
2022-07-26T07:51:14.683Z,21.63
2022-07-26T07:53:41.529Z,21.85
2022-07-26T07:56:08.209Z,22.00
2022-07-26T07:58:34.824Z,21.98
2022-07-26T08:01:01.523Z,21.95
2022-07-26T08:03:38.955Z,22.00
2022-07-26T08:06:08.337Z,22.20
2022-07-26T08:08:37.360Z,22.33
2022-07-26T08:11:05.230Z,22.48
2022-07-26T08:13:34.671Z,22.57
2022-07-26T08:16:09.573Z,22.64
2022-07-26T08:18:36.461Z,22.67
2022-07-26T08:21:08.536Z,22.65
2022-07-26T08:23:35.255Z,22.82
2022-07-26T08:26:06.277Z,22.85
2022-07-26T08:28:58.389Z,22.96
2022-07-26T08:31:21.147Z,23.11
2022-07-26T08:33:48.651Z,23.25
2022-07-26T08:36:17.122Z,23.14
2022-07-26T08:38:44.621Z,23.20
2022-07-26T08:41:14.208Z,23.31
2022-07-26T08:43:48.887Z,23.36
2022-07-26T08:46:24.677Z,23.56
2022-07-26T08:48:52.741Z,23.52
2022-07-26T08:51:22.150Z,23.37
2022-07-26T08:53:49.779Z,23.14
2022-07-26T08:56:16.278Z,22.97
2022-07-26T08:58:43.911Z,22.85
2022-07-26T09:01:12.950Z,22.69
2022-07-26T09:03:40.604Z,22.61
2022-07-26T09:06:21.750Z,22.56
2022-07-26T09:08:51.298Z,22.59
2022-07-26T09:11:24.013Z,22.59
2022-07-26T09:13:59.082Z,22.56
2022-07-26T09:16:26.755Z,22.62
2022-07-26T09:18:53.895Z,22.53
2022-07-26T09:21:27.466Z,22.42
2022-07-26T09:23:55.129Z,22.29
2022-07-26T09:26:23.682Z,22.08
2022-07-26T09:29:03.583Z,21.26
2022-07-26T09:31:30.323Z,20.55
2022-07-26T09:33:58.929Z,20.03
2022-07-26T09:36:27.614Z,19.55
2022-07-26T09:38:59.116Z,19.13
2022-07-26T09:41:30.219Z,18.95
2022-07-26T09:44:00.456Z,18.76
2022-07-26T09:46:29.743Z,18.63
2022-07-26T09:49:13.448Z,18.45
2022-07-26T09:51:42.232Z,18.32
2022-07-26T09:54:11.046Z,18.24
2022-07-26T09:56:49.895Z,18.21
2022-07-26T09:59:18.942Z,18.10
2022-07-26T10:01:45.825Z,18.10
2022-07-26T10:04:13.991Z,18.16
2022-07-26T10:06:42.285Z,18.22
2022-07-26T10:09:09.737Z,18.33
2022-07-26T10:12:06.916Z,18.33
2022-07-26T10:14:33.476Z,18.42
2022-07-26T10:17:01.142Z,18.42
2022-07-26T10:19:45.256Z,18.50
2022-07-26T10:22:31.155Z,18.50
2022-07-26T10:25:20.009Z,18.47
2022-07-26T10:27:55.078Z,18.48
2022-07-26T10:30:23.246Z,18.45
2022-07-26T10:33:13.495Z,18.48
2022-07-26T10:35:44.826Z,18.57
2022-07-26T10:38:31.648Z,18.70
2022-07-26T10:41:09.040Z,18.85
2022-07-26T10:43:41.050Z,19.18
2022-07-26T10:46:20.551Z,19.62
2022-07-26T10:49:03.626Z,20.00
2022-07-26T10:51:39.426Z,20.22
2022-07-26T10:54:09.415Z,20.43
2022-07-26T10:56:36.629Z,20.58
2022-07-26T10:59:05.414Z,20.83
2022-07-26T11:01:40.838Z,20.78
2022-07-26T11:04:27.750Z,20.63
2022-07-26T11:07:00.413Z,20.73
2022-07-26T11:09:34.514Z,20.89
2022-07-26T11:12:20.070Z,20.86
2022-07-26T11:14:48.542Z,20.88
2022-07-26T11:17:25.154Z,20.79
2022-07-26T11:19:52.160Z,20.81
2022-07-26T11:22:18.924Z,20.83
2022-07-26T11:24:45.652Z,20.98
2022-07-26T11:27:12.514Z,21.22
2022-07-26T11:29:40.308Z,21.36
2022-07-26T11:32:17.862Z,21.53
2022-07-26T11:34:45.846Z,21.71
2022-07-26T11:37:13.466Z,21.84
2022-07-26T11:39:40.073Z,22.03
2022-07-26T11:42:13.239Z,22.07
2022-07-26T11:44:44.247Z,22.11
2022-07-26T11:47:20.015Z,22.04
2022-07-26T11:50:00.893Z,22.16
2022-07-26T11:52:33.676Z,22.19
2022-07-26T11:55:00.263Z,22.19
2022-07-26T11:57:32.174Z,22.26
2022-07-26T12:00:00.409Z,22.25
2022-07-26T12:02:28.533Z,22.24
2022-07-26T12:05:14.186Z,22.17
2022-07-26T12:07:56.080Z,21.97
2022-07-26T12:10:23.158Z,21.94
2022-07-26T12:12:50.210Z,22.14
2022-07-26T12:15:16.854Z,22.18
2022-07-26T12:17:59.680Z,22.20
2022-07-26T12:20:28.109Z,22.35
2022-07-26T12:23:04.982Z,22.54
2022-07-26T12:25:32.020Z,22.64
2022-07-26T12:27:58.561Z,22.70
2022-07-26T12:30:30.748Z,22.68
2022-07-26T12:33:02.140Z,22.74
2022-07-26T12:35:35.788Z,23.01
2022-07-26T12:38:03.466Z,23.37
2022-07-26T12:40:39.540Z,23.63
2022-07-26T12:43:06.076Z,23.67
2022-07-26T12:45:36.238Z,23.81
2022-07-26T12:48:07.054Z,24.02
2022-07-26T12:50:33.854Z,24.05
2022-07-26T12:53:08.772Z,24.06
2022-07-26T12:55:36.128Z,24.09
2022-07-26T12:58:02.881Z,24.32
2022-07-26T13:00:29.816Z,24.28
2022-07-26T13:02:57.642Z,24.31
2022-07-26T13:05:24.965Z,24.24
2022-07-26T13:07:52.139Z,24.09
2022-07-26T13:10:35.592Z,24.08
2022-07-26T13:13:03.713Z,24.21
2022-07-26T13:15:36.068Z,24.35
2022-07-26T13:18:08.768Z,24.45
2022-07-26T13:20:39.328Z,24.44
2022-07-26T13:23:11.588Z,24.50
2022-07-26T13:25:40.374Z,24.67
2022-07-26T13:28:08.150Z,24.63
2022-07-26T13:30:37.473Z,24.61
2022-07-26T13:33:04.729Z,24.64
2022-07-26T13:35:31.227Z,24.47
2022-07-26T13:37:57.816Z,24.46
2022-07-26T13:40:30.683Z,24.61
2022-07-26T13:42:57.973Z,24.55
2022-07-26T13:45:24.485Z,24.55
2022-07-26T13:47:55.921Z,24.43
2022-07-26T13:50:22.748Z,24.48
2022-07-26T13:52:49.334Z,24.42
2022-07-26T13:55:16.166Z,24.16
2022-07-26T13:57:55.915Z,24.02
2022-07-26T14:00:23.149Z,23.75
2022-07-26T14:02:49.931Z,23.55
2022-07-26T14:05:16.638Z,23.57
2022-07-26T14:07:43.570Z,23.48
2022-07-26T14:10:10.494Z,23.38
2022-07-26T14:12:38.154Z,23.35
2022-07-26T14:15:11.238Z,23.32
2022-07-26T14:17:39.739Z,23.18
2022-07-26T14:20:07.058Z,23.04
2022-07-26T14:22:33.596Z,23.01
2022-07-26T14:25:00.299Z,22.94
2022-07-26T14:27:26.968Z,22.87
2022-07-26T14:29:53.586Z,22.82
2022-07-26T14:32:22.105Z,22.84
2022-07-26T14:34:49.909Z,22.94
2022-07-26T14:37:44.474Z,23.00
2022-07-26T14:40:05.771Z,22.91
2022-07-26T14:42:32.512Z,22.84
2022-07-26T14:44:59.201Z,22.79
2022-07-26T14:47:25.803Z,22.83
2022-07-26T14:49:52.441Z,22.87
2022-07-26T14:52:19.171Z,22.77
2022-07-26T14:54:45.729Z,22.68
2022-07-26T14:57:12.292Z,22.81
2022-07-26T14:59:38.826Z,23.12
2022-07-26T15:02:05.970Z,23.36
2022-07-26T15:04:33.310Z,23.57
2022-07-26T15:07:00.129Z,23.85
2022-07-26T15:09:26.621Z,23.75
2022-07-26T15:11:53.450Z,23.60
2022-07-26T15:14:19.991Z,23.60
2022-07-26T15:16:46.651Z,23.63
2022-07-26T15:19:13.502Z,23.95
2022-07-26T15:21:40.174Z,24.29
2022-07-26T15:24:07.550Z,24.61
2022-07-26T15:26:35.079Z,25.61
2022-07-26T15:29:01.617Z,25.71
2022-07-26T15:31:36.620Z,25.67
2022-07-26T15:34:07.628Z,25.79
2022-07-26T15:36:34.644Z,25.13
2022-07-26T15:39:14.665Z,24.64
2022-07-26T15:41:43.542Z,24.43
2022-07-26T15:44:11.579Z,24.40
2022-07-26T15:46:39.842Z,24.33
2022-07-26T15:49:07.611Z,24.10
2022-07-26T15:51:34.527Z,23.78
2022-07-26T15:54:03.031Z,23.73
2022-07-26T15:56:29.735Z,23.86
2022-07-26T15:58:56.440Z,24.05
2022-07-26T16:01:23.081Z,23.85
2022-07-26T16:03:50.229Z,23.56
2022-07-26T16:06:17.418Z,23.24
2022-07-26T16:09:13.535Z,22.96
2022-07-26T16:11:31.365Z,22.78
2022-07-26T16:14:01.407Z,22.69
2022-07-26T16:16:30.042Z,22.63
2022-07-26T16:18:56.851Z,22.57
2022-07-26T16:21:24.052Z,22.59
2022-07-26T16:23:51.128Z,22.69
2022-07-26T16:26:18.326Z,22.93
2022-07-26T16:28:45.236Z,23.33
2022-07-26T16:31:12.210Z,23.33
2022-07-26T16:33:41.970Z,23.16
2022-07-26T16:36:14.048Z,22.97
2022-07-26T16:38:40.586Z,23.00
2022-07-26T16:41:07.260Z,23.06
2022-07-26T16:43:34.590Z,23.17
2022-07-26T16:46:01.831Z,23.39
2022-07-26T16:48:28.497Z,23.28
2022-07-26T16:50:55.096Z,23.20
2022-07-26T16:53:21.597Z,23.01
2022-07-26T16:55:51.286Z,22.77
2022-07-26T16:58:18.634Z,22.54
2022-07-26T17:00:46.126Z,22.37
2022-07-26T17:03:15.725Z,22.25
2022-07-26T17:05:43.746Z,22.16
2022-07-26T17:08:10.493Z,22.19
2022-07-26T17:10:37.132Z,22.17
2022-07-26T17:13:04.093Z,21.99
2022-07-26T17:15:30.571Z,21.94
2022-07-26T17:17:57.178Z,21.95
2022-07-26T17:20:23.722Z,21.91
2022-07-26T17:22:50.297Z,21.86
2022-07-26T17:25:16.995Z,21.80
2022-07-26T17:27:43.880Z,21.73
2022-07-26T17:30:11.384Z,21.62
2022-07-26T17:32:38.169Z,21.48
2022-07-26T17:35:06.425Z,21.33
2022-07-26T17:37:35.127Z,21.21
2022-07-26T17:40:04.973Z,21.09
2022-07-26T17:42:35.090Z,20.96
2022-07-26T17:45:01.812Z,20.88
2022-07-26T17:47:30.483Z,20.80
2022-07-26T17:52:52.661Z,20.67
2022-07-26T17:55:20.399Z,20.66
2022-07-26T17:57:48.308Z,20.62
2022-07-26T18:00:18.954Z,20.61
2022-07-26T18:02:45.871Z,20.60
2022-07-26T18:05:12.593Z,20.59
2022-07-26T18:07:39.814Z,20.61
2022-07-26T18:10:07.660Z,20.60
2022-07-26T18:12:34.279Z,20.53
2022-07-26T18:15:00.808Z,20.45
2022-07-26T18:17:27.466Z,20.41
2022-07-26T18:19:54.020Z,20.37
2022-07-26T18:22:20.643Z,20.34
2022-07-26T18:24:47.138Z,20.30
2022-07-26T18:27:13.675Z,20.26
2022-07-26T18:29:40.234Z,20.24
2022-07-26T18:32:06.798Z,20.30
2022-07-26T18:34:34.077Z,20.54
2022-07-26T18:37:00.757Z,20.58
2022-07-26T18:39:32.572Z,20.59
2022-07-26T18:42:00.208Z,20.58
2022-07-26T18:44:26.734Z,20.50
2022-07-26T18:46:53.426Z,20.41
2022-07-26T18:49:21.175Z,20.34
2022-07-26T18:51:49.021Z,20.26
2022-07-26T18:54:16.823Z,20.20
2022-07-26T18:56:43.441Z,20.12
2022-07-26T18:59:10.337Z,20.03
2022-07-26T19:01:37.483Z,19.92
2022-07-26T19:04:07.072Z,19.82
2022-07-26T19:06:34.916Z,19.75
2022-07-26T19:09:01.562Z,19.68
2022-07-26T19:11:29.609Z,19.60
2022-07-26T19:13:56.196Z,19.56
2022-07-26T19:16:22.906Z,19.50
2022-07-26T19:18:52.718Z,19.45
2022-07-26T19:21:22.042Z,19.40
2022-07-26T19:23:48.619Z,19.36
2022-07-26T19:26:15.087Z,19.32
2022-07-26T19:28:41.703Z,19.29
2022-07-26T19:31:08.292Z,19.24
2022-07-26T19:33:34.844Z,19.21
2022-07-26T19:36:01.510Z,19.16
2022-07-26T19:38:28.105Z,19.12
2022-07-26T19:40:55.218Z,19.08
2022-07-26T19:43:22.634Z,19.03
2022-07-26T19:45:49.492Z,19.01
2022-07-26T19:48:16.087Z,18.98
2022-07-26T19:50:42.587Z,18.95
2022-07-26T19:53:09.076Z,18.92
2022-07-26T19:55:38.486Z,18.91
2022-07-26T19:58:05.193Z,18.88
2022-07-26T20:00:31.677Z,18.86
2022-07-26T20:02:58.348Z,18.83
2022-07-26T20:05:24.925Z,18.83
2022-07-26T20:07:52.953Z,18.82
2022-07-26T20:10:19.701Z,18.79
2022-07-26T20:12:46.231Z,18.77
2022-07-26T20:15:14.355Z,18.76
2022-07-26T20:17:41.501Z,18.73
2022-07-26T20:20:09.704Z,18.70
2022-07-26T20:22:36.694Z,18.66
2022-07-26T20:25:03.510Z,18.66
2022-07-26T20:27:30.196Z,18.63
2022-07-26T20:30:00.874Z,18.61
2022-07-26T20:32:27.931Z,18.56
2022-07-26T20:34:54.692Z,18.54
2022-07-26T20:37:21.327Z,18.52
2022-07-26T20:39:47.853Z,18.52
2022-07-26T20:42:21.227Z,18.49
2022-07-26T20:44:48.244Z,18.42
2022-07-26T20:47:15.229Z,18.36
2022-07-26T20:49:41.761Z,18.35
2022-07-26T20:52:08.434Z,18.33
2022-07-26T20:54:35.129Z,18.32
2022-07-26T20:57:04.100Z,18.32
2022-07-26T20:59:32.308Z,18.29
2022-07-26T21:01:59.057Z,18.28
2022-07-26T21:04:25.624Z,18.22
2022-07-26T21:06:52.253Z,18.17
2022-07-26T21:09:19.843Z,18.11
2022-07-26T21:11:46.758Z,18.03
2022-07-26T21:14:13.397Z,18.00
2022-07-26T21:16:40.143Z,17.96
2022-07-26T21:19:06.938Z,17.93
2022-07-26T21:21:34.245Z,17.86
2022-07-26T21:24:00.904Z,17.80
2022-07-26T21:26:27.481Z,17.75
2022-07-26T21:28:54.091Z,17.72
2022-07-26T21:31:21.128Z,17.73
2022-07-26T21:33:47.684Z,17.71
2022-07-26T21:36:14.358Z,17.66
2022-07-26T21:38:41.915Z,17.62
2022-07-26T21:41:08.509Z,17.60
2022-07-26T21:43:35.748Z,17.59
2022-07-26T21:46:02.984Z,17.59
2022-07-26T21:48:30.197Z,17.57
2022-07-26T21:50:56.809Z,17.53
2022-07-26T21:53:23.321Z,17.50
2022-07-26T21:55:49.800Z,17.49
2022-07-26T21:58:17.097Z,17.48
2022-07-26T22:00:43.894Z,17.46
2022-07-26T22:03:11.744Z,17.44
2022-07-26T22:05:38.270Z,17.42
2022-07-26T22:08:06.868Z,17.40
2022-07-26T22:10:35.186Z,17.40
2022-07-26T22:13:10.672Z,17.38
2022-07-26T22:15:37.327Z,17.35
2022-07-26T22:18:04.102Z,17.33
2022-07-26T22:20:32.367Z,17.32
2022-07-26T22:23:03.402Z,17.29
2022-07-26T22:25:31.849Z,17.26
2022-07-26T22:27:59.604Z,17.22
2022-07-26T22:30:28.443Z,17.20
2022-07-26T22:32:56.553Z,17.20
2022-07-26T22:35:24.929Z,17.15
2022-07-26T22:37:53.540Z,17.12
2022-07-26T22:40:21.707Z,17.10
2022-07-26T22:42:48.517Z,17.08
2022-07-26T22:45:15.868Z,17.05
2022-07-26T22:47:46.951Z,16.99
2022-07-26T22:50:23.409Z,16.95
2022-07-26T22:52:52.199Z,16.92
2022-07-26T22:55:18.887Z,16.90
2022-07-26T22:57:45.679Z,16.88
2022-07-26T23:00:14.949Z,16.81
2022-07-26T23:02:41.955Z,16.71
2022-07-26T23:05:09.324Z,16.59
2022-07-26T23:07:37.080Z,16.51
2022-07-26T23:10:05.974Z,16.43
2022-07-26T23:12:32.556Z,16.36
2022-07-26T23:14:59.114Z,16.28
2022-07-26T23:17:25.640Z,16.22
2022-07-26T23:19:52.176Z,16.16
2022-07-26T23:22:18.653Z,16.09
2022-07-26T23:24:45.137Z,16.04
2022-07-26T23:27:14.339Z,15.99
2022-07-26T23:29:44.652Z,15.94
2022-07-26T23:32:12.601Z,15.91
2022-07-26T23:34:39.673Z,15.84
2022-07-26T23:37:06.141Z,15.80
2022-07-26T23:39:32.734Z,15.76
2022-07-26T23:42:02.911Z,15.70
2022-07-26T23:44:30.603Z,15.64
2022-07-26T23:46:58.579Z,15.57
2022-07-26T23:49:25.453Z,15.51
2022-07-26T23:51:52.329Z,15.45
2022-07-26T23:54:19.054Z,15.41
2022-07-26T23:56:45.806Z,15.36
2022-07-26T23:59:13.704Z,15.31
